Latest Coastal Weather Observations for Flinders Island Airport

IDV60701

Issued at 10:05 pm EDT Thursday 23 October 2014 (issued every 10 minutes, with the page automatically refreshed every 10 minutes)

About coastal observations | Map of coastal stations | Coastal observations for VIC | Marine services | Other Formats
Station Details ID: 099005 Name: FLINDERS ISLAND AIRPORT Lat: -40.09 Lon: 148.00 Height: 9.0 m
Data from the previous 72 hours. | See also: Recent months at Flinders Island Airport
Date/Time
EDT
Temp

°C
Wind Pressure Rain
since 9am
mm
Weather Cloud Vis
km
Sea
Height
m
Swell
Dir
 
Speed
knots
Gust
knots
hPa Trend Height
m
Period
s
Dir
23/10:00pm 13.5 E 13 22 1023.3 - 0.0 - Partly cloudy 10 - - - -
23/09:30pm 13.3 E 17 24 1023.4 - 0.0 - Partly cloudy 10 - - - -
23/09:00pm 13.3 E 13 19 1023.3 - 0.0 - Cloudy 10 - - - -
23/08:30pm 13.2 E 12 20 1022.9 - 0.0 - Partly cloudy 10 - - - -
23/08:00pm 13.2 E 11 19 1022.6 - 0.0 - - 10 - - - -
23/07:30pm 13.5 E 11 18 1022.7 - 0.0 - Cloudy 10 - - - -
23/07:00pm 13.6 E 12 19 1022.7 - 0.0 - Cloudy 10 - - - -
23/06:30pm 13.8 E 9 17 1022.5 - 0.0 - Cloudy 10 - - - -
23/06:00pm 13.9 E 13 23 1022.2 - 0.0 - Partly cloudy 10 - - - -
23/05:30pm 14.2 E 13 22 1022.2 - 0.0 - Partly cloudy 10 - - - -
23/05:00pm 14.8 E 10 17 1022.2 - 0.0 - Cloudy 10 - - - -
23/04:30pm 15.1 E 13 23 1022.4 - 0.0 - Partly cloudy 10 - - - -
23/04:00pm 15.9 E 15 22 1022.1 - 0.0 - Partly cloudy 10 - - - -
23/03:30pm 16.0 E 17 28 1021.9 - 0.0 - - 10 - - - -
23/03:08pm 16.1 ESE 15 27 1022.0 - 0.0 - - 10 - - - -
23/03:00pm 17.1 ESE 13 28 1022.1 - 0.0 - - 10 - - - -
23/02:30pm 16.8 E 15 28 1021.9 - 0.0 - - 10 - - - -
23/02:00pm 17.0 E 16 32 1021.9 - 0.0 - - 10 - - - -
23/01:30pm 17.0 ESE 17 31 1021.9 - 0.0 - - 10 - - - -
23/01:00pm 16.6 E 20 32 1021.8 - 0.0 - - 10 - - - -
23/12:30pm 16.7 E 18 31 1021.8 - 0.0 - - 10 - - - -
23/12:01pm 16.4 ESE 18 28 1022.0 - 0.0 - - 10 - - - -
23/12:00pm 16.7 ESE 19 28 1022.1 - 0.0 - - 10 - - - -
23/11:30am 16.1 ESE 16 27 1022.3 - 0.0 - - 10 - - - -
23/11:10am 16.4 ESE 15 26 1022.4 - 0.0 - Partly cloudy 10 - - - -
23/11:00am 16.5 ESE 13 27 1022.4 - 0.0 - Partly cloudy 10 - - - -
23/10:53am 16.1 ESE 15 27 1022.5 - 0.0 - Partly cloudy 10 - - - -
23/10:30am 16.0 ESE 13 26 1022.5 - 0.0 - Partly cloudy 10 - - - -
23/10:06am 15.8 ESE 13 22 1022.5 - 0.0 - Partly cloudy 10 - - - -
23/10:03am 15.3 ESE 13 25 1022.5 - 0.0 - Partly cloudy 10 - - - -
23/10:00am 16.3 ESE 14 25 1022.5 - 0.0 - Partly cloudy 10 - - - -
23/09:49am 15.7 ESE 15 26 1022.3 - 0.0 - Partly cloudy 10 - - - -
23/09:30am 15.8 ESE 12 27 1022.1 - 0.0 - Partly cloudy 10 - - - -
23/09:13am 15.5 ESE 13 24 1021.9 - 0.0 - Partly cloudy 10 - - - -
23/09:04am 15.5 ESE 15 29 1021.7 - 0.0 - Partly cloudy 10 - - - -
23/09:00am 15.5 ESE 14 29 1021.6 - 0.0 - Mostly cloudy 10 - - - -
23/08:30am 14.8 ESE 11 24 1021.0 - 0.0 - Partly cloudy 10 - - - -
23/08:00am 14.4 ESE 12 21 1020.4 - 0.0 - Partly cloudy 10 - - - -
23/07:30am 14.5 ESE 14 27 1019.8 - 0.0 - Partly cloudy 10 - - - -
23/07:00am 14.4 ESE 12 25 1019.3 - 0.0 - Partly cloudy 10 - - - -
23/06:30am 14.3 ESE 12 26 1018.5 - 0.0 - Partly cloudy 10 - - - -
23/06:00am 14.1 ESE 13 22 1018.1 - 0.0 - Partly cloudy 10 - - - -
23/05:30am 14.2 ESE 11 23 1017.9 - 0.0 - Partly cloudy 10 - - - -
23/05:00am 14.1 ESE 12 22 1017.4 - 0.0 - Partly cloudy 10 - - - -
23/04:33am 14.2 ESE 15 25 1017.1 - 0.0 - - 10 - - - -
23/04:30am 14.2 ESE 14 25 1017.1 - 0.0 - Partly cloudy 10 - - - -
23/04:22am 14.3 ESE 15 26 1017.2 - 0.0 - Partly cloudy 10 - - - -
23/04:00am 14.4 ESE 14 25 1017.3 - 0.0 - Partly cloudy 10 - - - -
23/03:39am 14.5 E 15 30 1017.2 - 0.0 - Partly cloudy 10 - - - -
23/03:30am 14.5 ESE 12 27 1017.4 - 0.0 - Partly cloudy 10 - - - -
23/03:00am 14.5 E 14 22 1017.3 - 0.0 - Cloudy 10 - - - -
23/02:30am 14.5 E 10 15 1017.3 - 0.0 - Partly cloudy 10 - - - -
23/02:00am 14.2 E 4 6 1017.4 - 0.0 - - 10 - - - -
23/01:30am 15.5 SSE 7 10 1017.8 - 0.0 - - 10 - - - -
23/01:00am 15.7 S 8 12 1017.7 - 0.0 - - 10 - - - -
23/12:30am 15.4 S 6 8 1016.3 - 0.0 - - 10 - - - -
23/12:00am 15.5 ENE 6 7 1015.7 - 0.0 - Cloudy 10 - - - -
 
Date/Time
EDT
Temp

°C
Wind Pressure Rain
since 9am
mm
Weather Cloud Vis
km
Sea
Height
m
Swell
Dir
 
Speed
knots
Gust
knots
hPa Trend Height
m
Period
s
Dir
22/11:30pm 16.6 S 7 12 1016.8 - 0.0 - - 10 - - - -
22/11:00pm 17.1 NE 4 5 1015.7 - 0.0 - - 10 - - - -
22/10:30pm 17.6 ENE 6 10 1014.8 - 0.0 - Partly cloudy 10 - - - -
22/10:00pm 16.9 ENE 10 13 1014.7 - 0.0 - Partly cloudy 10 - - - -
22/09:30pm 16.5 NNE 8 13 1015.7 - 0.0 - Partly cloudy 10 - - - -
22/09:00pm 16.9 NE 5 9 1016.3 - 0.0 - Cloudy 10 - - - -
22/08:30pm 16.5 NNE 5 7 1016.3 - 0.0 - Partly cloudy 10 - - - -
22/08:00pm 16.8 ESE 3 6 1016.2 - 0.0 - Partly cloudy 10 - - - -
22/07:30pm 16.8 ENE 6 7 1016.1 - 0.0 - - 10 - - - -
22/07:00pm 17.6 S 3 5 1016.6 - 0.0 - - 10 - - - -
22/06:30pm 18.3 SSW 7 9 1016.4 - 0.0 - - 10 - - - -
22/06:00pm 20.5 S 4 6 1015.6 - 0.0 - Partly cloudy 10 - - - -
22/05:30pm 22.3 SW 4 6 1015.3 - 0.0 - - 10 - - - -
22/05:00pm 20.4 WSW 6 8 1015.7 - 0.0 - - 10 - - - -
22/04:30pm 20.7 SSW 5 6 1015.9 - 0.0 - - 10 - - - -
22/04:00pm 20.0 SSW 6 8 1016.4 - 0.0 - - 10 - - - -
22/03:30pm 20.0 SW 6 7 1016.6 - 0.0 - - 10 - - - -
22/03:00pm 19.8 SW 7 9 1016.9 - 0.0 - - 10 - - - -
22/02:30pm 19.3 S 7 9 1017.3 - 0.0 - - 10 - - - -
22/02:00pm 19.7 SSW 7 8 1017.7 - 0.0 - - 10 - - - -
22/01:30pm 19.4 SSW 8 9 1018.2 - 0.0 - - 10 - - - -
22/01:00pm 19.6 SSW 8 10 1018.5 - 0.0 - - 10 - - - -
22/12:30pm 19.5 SSW 8 10 1018.8 - 0.0 - - 10 - - - -
22/12:00pm 21.1 SSW 7 9 1019.4 - 0.0 - - 10 - - - -
22/11:30am 20.3 SSW 8 10 1020.1 - 0.0 - - 10 - - - -
22/11:00am 20.5 N 9 13 1020.2 - 0.0 - - 10 - - - -
22/10:30am 20.0 NNE 10 15 1020.4 - 0.0 - - 10 - - - -
22/10:00am 19.2 NNE 15 19 1020.4 - 0.0 - - 10 - - - -
22/09:30am 18.4 NE 15 20 1020.6 - 0.0 - - 10 - - - -
22/09:00am 17.5 NNE 17 22 1020.6 - 0.0 - - 10 - - - -
22/08:30am 17.1 NE 18 22 1021.0 - 0.0 - - 10 - - - -
22/08:00am 16.3 NE 18 24 1021.0 - 0.0 - - 10 - - - -
22/07:30am 15.3 NE 16 20 1021.1 - 0.0 - - 10 - - - -
22/07:00am 14.3 NE 12 16 1021.6 - 0.0 - - 10 - - - -
22/06:30am 14.0 ENE 15 21 1021.7 - 0.0 - - 10 - - - -
22/06:00am 14.0 ENE 14 18 1021.8 - 0.0 - - 10 - - - -
22/05:30am 14.2 ENE 14 20 1022.0 - 0.0 - - 10 - - - -
22/05:00am 14.1 ENE 13 19 1022.1 - 0.0 - Partly cloudy 10 - - - -
22/04:30am 14.0 ENE 13 19 1022.5 - 0.0 - - 10 - - - -
22/04:00am 13.9 ENE 18 25 1022.8 - 0.0 - Partly cloudy 10 - - - -
22/03:30am 14.1 ENE 14 20 1023.7 - 0.0 - Partly cloudy 10 - - - -
22/03:00am 14.2 ENE 17 23 1024.2 - 0.0 - Partly cloudy 10 - - - -
22/02:30am 14.4 ENE 16 23 1024.6 - 0.0 - Cloudy 10 - - - -
22/02:00am 14.1 ENE 16 23 1025.1 - 0.0 - Partly cloudy 10 - - - -
22/01:30am 13.9 ENE 18 27 1025.3 - 0.0 - Partly cloudy 10 - - - -
22/01:15am 13.8 ENE 17 27 1025.4 - 0.0 - Partly cloudy 10 - - - -
22/01:00am 13.9 ENE 17 26 1025.7 - 0.0 - Partly cloudy 10 - - - -
22/12:30am 14.1 ENE 16 22 1026.6 - 0.0 - Cloudy 10 - - - -
22/12:03am 14.3 NE 16 26 1027.2 - 0.0 - Cloudy 10 - - - -
22/12:00am 14.3 NE 15 21 1027.2 - 0.0 - Cloudy 10 - - - -
 
Date/Time
EDT
Temp

°C
Wind Pressure Rain
since 9am
mm
Weather Cloud Vis
km
Sea
Height
m
Swell
Dir
 
Speed
knots
Gust
knots
hPa Trend Height
m
Period
s
Dir
21/11:52pm 14.2 NE 15 25 1027.3 - 0.0 - Cloudy 10 - - - -
21/11:30pm 14.4 ENE 16 22 1027.9 - 0.0 - Cloudy 10 - - - -
21/11:00pm 14.4 ENE 15 21 1028.3 - 0.0 - Cloudy 10 - - - -
21/10:40pm 14.2 ENE 16 26 1028.2 - 0.0 - Cloudy 10 - - - -
21/10:30pm 14.3 ENE 15 24 1028.2 - 0.0 - Cloudy 10 - - - -
21/10:00pm 13.6 ENE 13 20 1028.5 - 0.0 - Partly cloudy 10 - - - -
21/09:30pm 13.1 ENE 10 14 1028.3 - 0.0 - - 10 - - - -
21/09:00pm 13.1 ENE 11 16 1028.3 - 0.0 - - 10 - - - -
21/08:30pm 13.4 ENE 10 14 1028.6 - 0.0 - - 10 - - - -
21/08:00pm 13.5 ENE 9 15 1028.7 - 0.0 - Partly cloudy 10 - - - -
21/07:30pm 13.6 ENE 13 17 1028.7 - 0.0 - - 10 - - - -
21/07:00pm 14.1 ENE 16 21 1028.6 - 0.0 - Partly cloudy 10 - - - -
21/06:30pm 14.8 ENE 13 20 1028.9 - 0.0 - Cloudy 10 - - - -
21/06:00pm 15.5 ENE 15 24 1029.0 - 0.0 - Partly cloudy 10 - - - -
21/05:30pm 15.3 ENE 18 24 1028.8 - 0.0 - Partly cloudy 10 - - - -
21/05:20pm 15.6 ENE 15 27 1028.8 - 0.0 - Partly cloudy 10 - - - -
21/05:00pm 16.5 ENE 17 24 1029.0 - 0.0 - Partly cloudy 10 - - - -
21/04:30pm 16.9 ENE 16 23 1029.3 - 0.0 - Partly cloudy 10 - - - -
21/04:00pm 17.1 ENE 15 22 1029.5 - 0.0 - Partly cloudy 10 - - - -
21/03:45pm 16.7 ENE 16 26 1030.0 - 0.0 - Partly cloudy 10 - - - -
21/03:30pm 16.9 ENE 16 25 1030.2 - 0.0 - Partly cloudy 10 - - - -
21/03:00pm 17.1 NE 18 24 1030.3 - 0.0 - Mostly clear 10 - - - -
21/02:30pm 16.4 E 18 24 1030.7 - 0.0 - Partly cloudy 10 - - - -
21/02:14pm 17.5 NE 17 27 1031.0 - 0.0 - Partly cloudy 10 - - - -
21/02:00pm 17.4 ENE 18 24 1030.9 - 0.0 - Partly cloudy 10 - - - -
21/01:48pm 17.5 NE 17 27 1031.2 - 0.0 - Partly cloudy 10 - - - -
21/01:30pm 17.1 NE 16 22 1031.5 - 0.0 - Partly cloudy 10 - - - -
21/01:00pm 16.8 ENE 17 22 1032.0 - 0.0 - Cloudy 10 - - - -
21/12:30pm 16.2 NE 17 24 1032.2 - 0.0 - Cloudy 10 - - - -
21/12:00pm 17.8 NE 17 25 1032.1 - 0.0 - Mostly clear 10 - - - -
21/11:30am 17.5 ENE 15 22 1032.6 - 0.0 - Cloudy 10 - - - -
21/11:00am 16.6 ENE 13 22 1033.0 - 0.0 - Cloudy 10 - - - -
21/10:30am 15.8 ENE 11 18 1033.2 - 0.0 - Cloudy 10 - - - -
21/10:00am 16.3 ENE 15 19 1033.4 - 0.0 - Cloudy 10 - - - -
21/09:30am 15.6 ENE 14 22 1033.2 - 0.0 - Cloudy 10 - - - -
21/09:00am 15.3 ENE 13 17 1033.1 - 0.0 - Cloudy 10 - - - -
21/08:30am 15.3 ENE 11 16 1032.9 - 0.0 - Partly cloudy 10 - - - -
21/08:00am 14.0 ENE 13 17 1032.4 - 0.0 - Partly cloudy 10 - - - -
21/07:30am 13.2 ENE 8 13 1032.6 - 0.0 - Partly cloudy 10 - - - -
21/07:00am 12.3 ENE 9 14 1032.3 - 0.0 - Partly cloudy 10 - - - -
21/06:30am 12.1 E 6 10 1032.3 - 0.0 - Cloudy 10 - - - -
21/06:00am 11.7 ENE 9 16 1032.2 - 0.0 - Mostly cloudy 10 - - - -
21/05:30am 11.7 ENE 9 15 1032.3 - 0.0 - Cloudy 10 - - - -
21/05:00am 11.8 ENE 7 11 1032.3 - 0.0 - Cloudy 10 - - - -
21/04:30am 11.3 ENE 7 10 1032.3 - 0.0 - Cloudy 10 - - - -
21/04:00am 10.2 ENE 8 12 1032.4 - 0.0 - Partly cloudy 10 - - - -
21/03:30am 9.9 E 7 10 1032.6 - 0.0 - Partly cloudy 10 - - - -
21/03:00am 10.0 E 8 10 1032.8 - 0.0 - - 10 - - - -
21/02:30am 10.9 ENE 10 14 1033.3 - 0.0 - Partly cloudy 10 - - - -
21/02:00am 11.6 ENE 8 13 1033.5 - 0.0 - Cloudy 10 - - - -
21/01:30am 11.8 ENE 9 14 1033.6 - 0.0 - Cloudy 10 - - - -
21/01:00am 11.7 ENE 9 13 1034.0 - 0.0 - Cloudy 10 - - - -
21/12:30am 11.0 ENE 7 11 1034.2 - 0.0 - Cloudy 10 - - - -
21/12:00am 11.5 E 7 11 1034.2 - 0.0 - Mostly cloudy 10 - - - -
 
Date/Time
EDT
Temp

°C
Wind Pressure Rain
since 9am
mm
Weather Cloud Vis
km
Sea
Height
m
Swell
Dir
 
Speed
knots
Gust
knots
hPa Trend Height
m
Period
s
Dir
20/11:30pm 11.9 E 6 12 1034.5 - 0.0 - Cloudy 10 - - - -
20/11:00pm 11.1 E 5 9 1034.5 - 0.0 - Cloudy 10 - - - -
20/10:30pm 10.9 E 5 6 1034.6 - 0.0 - Cloudy 10 - - - -

Other Formats:

Comma delimited format used in spreadsheet applications
http://www.bom.gov.au/fwo/IDV60701/IDV60701.94980.axf

JavaScript Object Notation format (JSON) in row-major order
http://www.bom.gov.au/fwo/IDV60701/IDV60701.94980.json